createdAt,value
2024-01-06T00:00:50.813Z,96641.56
2024-01-06T00:03:21.754Z,96642.09
2024-01-06T00:05:52.622Z,96647.47
2024-01-06T00:08:23.574Z,96644.19
2024-01-06T00:10:58.546Z,96641.78
2024-01-06T00:13:29.418Z,96634.66
2024-01-06T00:16:00.532Z,96636.53
2024-01-06T00:18:31.392Z,96653.53
2024-01-06T00:21:02.472Z,96650.22
2024-01-06T00:23:33.319Z,96637.59
2024-01-06T00:26:08.085Z,96628.28
2024-01-06T00:28:39.005Z,96627.63
2024-01-06T00:31:10.238Z,96621.97
2024-01-06T00:33:41.068Z,96609.88
2024-01-06T00:36:12.717Z,96603.75
2024-01-06T00:38:43.412Z,96613.53
2024-01-06T00:41:16.826Z,96621.19
2024-01-06T00:43:47.676Z,96625.78
2024-01-06T00:46:18.624Z,96608.69
2024-01-06T00:48:49.520Z,96604.22
2024-01-06T00:51:20.364Z,96596.72
2024-01-06T00:53:51.261Z,96581.13
2024-01-06T00:56:24.500Z,96591.84
2024-01-06T00:58:55.271Z,96591.31
2024-01-06T01:01:26.024Z,96598.91
2024-01-06T01:03:54.289Z,96601.88
2024-01-06T01:06:25.165Z,96603.16
2024-01-06T01:08:55.954Z,96595.47
2024-01-06T01:11:29.314Z,96593.28
2024-01-06T01:14:00.076Z,96593.94
2024-01-06T01:16:31.076Z,96588.63
2024-01-06T01:19:03.518Z,96576.38
2024-01-06T01:21:34.382Z,96578.53
2024-01-06T01:24:05.173Z,96574.25
2024-01-06T01:26:38.568Z,96579.38
2024-01-06T01:29:09.318Z,96581.47
2024-01-06T01:31:40.089Z,96575.81
2024-01-06T01:34:11.042Z,96571.63
2024-01-06T01:36:42.084Z,96567.44
2024-01-06T01:39:12.879Z,96558.72
2024-01-06T01:41:46.553Z,96547.75
2024-01-06T01:44:17.292Z,96555.16
2024-01-06T01:46:48.294Z,96543.34
2024-01-06T01:49:19.843Z,96538.69
2024-01-06T01:51:50.869Z,96549.94
2024-01-06T01:54:21.746Z,96547.28
2024-01-06T01:56:55.430Z,96542.78
2024-01-06T01:59:26.205Z,96543.44
2024-01-06T02:01:57.072Z,96548.56
2024-01-06T02:04:27.771Z,96555.25
2024-01-06T02:06:59.341Z,96529.59
2024-01-06T02:09:31.093Z,96547.16
2024-01-06T02:12:04.462Z,96551.91
2024-01-06T02:14:35.294Z,96548.16
2024-01-06T02:17:06.078Z,96560.22
2024-01-06T02:19:36.911Z,96546.16
2024-01-06T02:22:10.469Z,96551.34
2024-01-06T02:24:41.210Z,96541.44
2024-01-06T02:27:11.951Z,96539.22
2024-01-06T02:29:42.654Z,96537.25
2024-01-06T02:32:13.362Z,96536.56
2024-01-06T02:34:44.145Z,96527.91
2024-01-06T02:37:17.553Z,96510.13
2024-01-06T02:39:48.371Z,96514.81
2024-01-06T02:42:19.259Z,96516.94
2024-01-06T02:44:50.222Z,96512.78
2024-01-06T02:47:21.315Z,96532.28
2024-01-06T02:49:52.193Z,96526.28
2024-01-06T02:52:26.017Z,96537.13
2024-01-06T02:54:56.824Z,96537.41
2024-01-06T02:57:27.561Z,96543.53
2024-01-06T02:59:58.317Z,96533.94
2024-01-06T03:02:29.031Z,96549.72
2024-01-06T03:04:59.796Z,96548.44
2024-01-06T03:07:36.117Z,96549.25
2024-01-06T03:10:07.172Z,96553.09
2024-01-06T03:12:38.059Z,96555.38
2024-01-06T03:15:09.752Z,96561.19
2024-01-06T03:17:40.512Z,96558.97
2024-01-06T03:20:12.487Z,96560.13
2024-01-06T03:22:45.694Z,96557.91
2024-01-06T03:25:16.313Z,96556.03
2024-01-06T03:27:48.469Z,96553.28
2024-01-06T03:30:19.319Z,96554.09
2024-01-06T03:32:50.168Z,96547.50
2024-01-06T03:35:20.867Z,96549.06
2024-01-06T03:37:54.202Z,96548.22
2024-01-06T03:40:24.991Z,96544.78
2024-01-06T03:42:55.736Z,96538.13
2024-01-06T03:45:26.511Z,96536.38
2024-01-06T03:47:57.262Z,96538.75
2024-01-06T03:50:27.982Z,96533.81
2024-01-06T03:53:01.240Z,96539.00
2024-01-06T03:55:32.320Z,96529.22
2024-01-06T03:58:02.987Z,96528.47
2024-01-06T04:00:33.771Z,96529.66
2024-01-06T04:03:04.467Z,96536.19
2024-01-06T04:05:35.208Z,96538.59
2024-01-06T04:08:09.550Z,96542.41
2024-01-06T04:10:41.179Z,96533.16
2024-01-06T04:13:12.142Z,96539.66
2024-01-06T04:15:43.253Z,96538.19
2024-01-06T04:18:14.118Z,96533.41
2024-01-06T04:20:44.852Z,96541.13
2024-01-06T04:23:18.252Z,96540.84
2024-01-06T04:25:49.048Z,96548.06
2024-01-06T04:28:19.908Z,96551.63
2024-01-06T04:30:50.670Z,96560.91
2024-01-06T04:33:21.685Z,96555.81
2024-01-06T04:35:52.416Z,96559.94
2024-01-06T04:38:25.789Z,96558.56
2024-01-06T04:40:56.449Z,96553.69
2024-01-06T04:43:27.228Z,96551.63
2024-01-06T04:45:58.961Z,96555.78
2024-01-06T04:48:29.873Z,96551.28
2024-01-06T04:51:00.760Z,96548.41
2024-01-06T04:53:34.242Z,96549.03
2024-01-06T04:56:04.984Z,96549.03
2024-01-06T04:58:36.323Z,96545.56
2024-01-06T05:01:07.695Z,96555.38
2024-01-06T05:03:38.574Z,96543.94
2024-01-06T05:06:09.567Z,96543.94
2024-01-06T05:08:46.287Z,96551.91
2024-01-06T05:11:17.522Z,96543.09
2024-01-06T05:13:48.160Z,96542.25
2024-01-06T05:16:18.821Z,96538.78
2024-01-06T05:18:49.909Z,96537.72
2024-01-06T05:21:20.785Z,96530.94
2024-01-06T05:23:54.089Z,96538.84
2024-01-06T05:26:24.864Z,96528.56
2024-01-06T05:28:56.522Z,96528.97
2024-01-06T05:31:27.924Z,96516.28
2024-01-06T05:33:58.766Z,96516.28
2024-01-06T05:36:29.509Z,96509.56
2024-01-06T05:39:02.909Z,96504.25
2024-01-06T05:41:33.665Z,96514.31
2024-01-06T05:44:04.522Z,96513.13
2024-01-06T05:46:35.237Z,96516.03
2024-01-06T05:49:06.117Z,96511.16
2024-01-06T05:51:36.883Z,96511.59
2024-01-06T05:54:10.326Z,96503.59
2024-01-06T05:56:41.058Z,96507.53
2024-01-06T05:59:11.931Z,96509.81
2024-01-06T06:01:42.671Z,96497.78
2024-01-06T06:04:13.609Z,96506.00
2024-01-06T06:06:44.461Z,96495.78
2024-01-06T06:09:17.949Z,96494.47
2024-01-06T06:11:48.610Z,96498.81
2024-01-06T06:14:19.292Z,96495.50
2024-01-06T06:16:50.099Z,96500.38
2024-01-06T06:19:21.735Z,96499.63
2024-01-06T06:21:52.769Z,96500.69
2024-01-06T06:24:26.275Z,96480.72
2024-01-06T06:26:57.023Z,96483.00
2024-01-06T06:29:27.713Z,96489.09
2024-01-06T06:31:58.366Z,96489.56
2024-01-06T06:34:29.125Z,96484.66
2024-01-06T06:37:00.265Z,96485.56
2024-01-06T06:39:33.746Z,96481.91
2024-01-06T06:42:04.487Z,96493.03
2024-01-06T06:44:35.412Z,96473.44
2024-01-06T06:47:06.114Z,96482.00
2024-01-06T06:49:36.816Z,96478.31
2024-01-06T06:52:08.560Z,96476.34
2024-01-06T06:54:42.032Z,96471.88
2024-01-06T06:57:13.263Z,96471.53
2024-01-06T06:59:44.039Z,96487.38
2024-01-06T07:02:15.065Z,96489.25
2024-01-06T07:04:46.487Z,96481.84
2024-01-06T07:07:17.105Z,96489.41
2024-01-06T07:09:50.396Z,96492.50
2024-01-06T07:12:24.139Z,96487.59
2024-01-06T07:14:54.890Z,96488.66
2024-01-06T07:17:25.553Z,96492.78
2024-01-06T07:19:56.727Z,96491.38
2024-01-06T07:22:27.622Z,96488.44
2024-01-06T07:25:01.114Z,96480.25
2024-01-06T07:27:31.754Z,96482.72
2024-01-06T07:30:02.556Z,96485.34
2024-01-06T07:32:36.300Z,96485.16
2024-01-06T07:35:08.323Z,96475.72
2024-01-06T07:37:39.336Z,96477.31
2024-01-06T07:40:14.647Z,96479.41
2024-01-06T07:42:45.280Z,96480.19
2024-01-06T07:45:16.494Z,96482.22
2024-01-06T07:47:47.310Z,96478.53
2024-01-06T07:50:17.985Z,96472.41
2024-01-06T07:52:48.681Z,96482.50
2024-01-06T07:55:22.255Z,96487.59
2024-01-06T07:57:53.081Z,96485.50
2024-01-06T08:00:24.421Z,96491.06
2024-01-06T08:02:55.922Z,96492.56
2024-01-06T08:05:26.608Z,96483.94
2024-01-06T08:07:57.321Z,96478.59
2024-01-06T08:10:31.038Z,96485.13
2024-01-06T08:13:01.883Z,96484.72
2024-01-06T08:15:33.891Z,96489.41
2024-01-06T08:18:04.847Z,96481.84
2024-01-06T08:20:35.751Z,96492.94
2024-01-06T08:23:06.555Z,96480.03
2024-01-06T08:25:39.920Z,96479.03
2024-01-06T08:28:10.775Z,96477.63
2024-01-06T08:30:41.892Z,96471.31
2024-01-06T08:33:12.959Z,96471.31
2024-01-06T08:35:43.734Z,96478.22
2024-01-06T08:38:14.576Z,96472.50
2024-01-06T08:40:49.520Z,96463.47
2024-01-06T08:43:20.280Z,96475.38
2024-01-06T08:45:52.329Z,96470.84
2024-01-06T08:48:24.032Z,96477.41
2024-01-06T08:50:54.915Z,96476.63
2024-01-06T08:53:25.535Z,96461.44
2024-01-06T08:55:59.008Z,96454.50
2024-01-06T08:58:29.713Z,96465.00
2024-01-06T09:01:01.310Z,96449.81
2024-01-06T09:03:32.213Z,96440.63
2024-01-06T09:06:03.321Z,96438.19
2024-01-06T09:08:34.078Z,96437.91
2024-01-06T09:11:07.819Z,96441.63
2024-01-06T09:13:38.835Z,96437.75
2024-01-06T09:16:09.652Z,96434.16
2024-01-06T09:18:40.793Z,96440.84
2024-01-06T09:21:11.522Z,96436.19
2024-01-06T09:23:42.305Z,96442.56
2024-01-06T09:26:17.778Z,96444.75
2024-01-06T09:28:48.218Z,96435.19
2024-01-06T09:31:18.965Z,96429.50
2024-01-06T09:33:51.280Z,96415.28
2024-01-06T09:36:22.377Z,96418.09
2024-01-06T09:38:53.202Z,96413.28
2024-01-06T09:41:26.813Z,96411.75
2024-01-06T09:43:57.969Z,96402.56
2024-01-06T09:46:31.061Z,96397.47
2024-01-06T09:49:02.496Z,96385.84
2024-01-06T09:51:33.300Z,96385.88
2024-01-06T09:54:06.218Z,96368.25
2024-01-06T09:56:39.671Z,96364.38
2024-01-06T09:59:10.385Z,96360.94
2024-01-06T10:01:41.114Z,96365.44
2024-01-06T10:04:13.607Z,96355.19
2024-01-06T10:06:46.353Z,96350.34
2024-01-06T10:09:17.236Z,96340.56
2024-01-06T10:11:50.783Z,96334.00
2024-01-06T10:14:21.425Z,96343.03
2024-01-06T10:16:52.666Z,96331.13
2024-01-06T10:19:23.997Z,96321.66
2024-01-06T10:21:54.862Z,96326.97
2024-01-06T10:24:25.603Z,96316.47
2024-01-06T10:26:59.081Z,96319.91
2024-01-06T10:29:30.642Z,96317.34
2024-01-06T10:32:02.404Z,96306.97
2024-01-06T10:34:34.174Z,96304.06
2024-01-06T10:37:07.441Z,96305.22
2024-01-06T10:39:38.894Z,96312.56
2024-01-06T10:42:13.781Z,96298.94
2024-01-06T10:44:47.708Z,96297.22
2024-01-06T10:47:21.215Z,96300.06
2024-01-06T10:49:58.197Z,96294.28
2024-01-06T10:52:31.791Z,96290.56
2024-01-06T10:55:04.185Z,96296.34
2024-01-06T10:57:38.732Z,96288.31
2024-01-06T11:00:11.405Z,96289.72
2024-01-06T11:02:43.550Z,96270.16
2024-01-06T11:05:15.061Z,96279.00
2024-01-06T11:07:48.615Z,96281.69
2024-01-06T11:10:21.648Z,96280.84
2024-01-06T11:13:14.372Z,96268.16
2024-01-06T11:15:47.085Z,96290.41
2024-01-06T11:18:37.290Z,96278.97
2024-01-06T11:21:26.789Z,96277.59
2024-01-06T11:24:19.388Z,96284.00
2024-01-06T11:26:53.585Z,96286.28
2024-01-06T11:29:27.343Z,96271.53
2024-01-06T11:32:24.136Z,96275.59
2024-01-06T11:34:56.567Z,96275.53
2024-01-06T11:37:29.263Z,96284.22
2024-01-06T11:40:00.212Z,96275.19
2024-01-06T11:42:37.095Z,96272.75
2024-01-06T11:45:11.544Z,96281.13
2024-01-06T11:47:43.869Z,96274.72
2024-01-06T11:50:14.640Z,96275.59
2024-01-06T11:52:45.681Z,96274.41
2024-01-06T11:55:16.943Z,96275.63
2024-01-06T11:57:48.584Z,96272.31
2024-01-06T12:00:22.868Z,96275.59
2024-01-06T12:02:53.695Z,96270.63
2024-01-06T12:05:26.310Z,96268.13
2024-01-06T12:07:58.840Z,96269.78
2024-01-06T12:10:31.699Z,96255.78
2024-01-06T12:13:03.824Z,96258.25
2024-01-06T12:15:38.997Z,96253.72
2024-01-06T12:18:11.644Z,96268.50
2024-01-06T12:20:43.591Z,96259.47
2024-01-06T12:23:17.261Z,96259.09
2024-01-06T12:25:51.159Z,96264.88
2024-01-06T12:28:21.994Z,96257.88
2024-01-06T12:30:55.693Z,96265.69
2024-01-06T12:33:26.726Z,96268.56
2024-01-06T12:35:57.736Z,96284.63
2024-01-06T12:38:29.428Z,96278.50
2024-01-06T12:41:00.564Z,96284.66
2024-01-06T12:43:31.551Z,96270.69
2024-01-06T12:46:05.049Z,96276.19
2024-01-06T12:48:35.949Z,96266.53
2024-01-06T12:51:07.101Z,96271.47
2024-01-06T12:53:37.862Z,96274.75
2024-01-06T12:56:09.817Z,96263.88
2024-01-06T12:58:40.560Z,96262.84
2024-01-06T13:01:14.433Z,96266.75
2024-01-06T13:03:45.409Z,96266.16
2024-01-06T13:06:17.462Z,96266.16
2024-01-06T13:08:48.897Z,96270.25
2024-01-06T13:11:19.622Z,96265.75
2024-01-06T13:13:50.368Z,96265.53
2024-01-06T13:16:23.936Z,96259.38
2024-01-06T13:18:55.870Z,96273.50
2024-01-06T13:21:26.871Z,96262.00
2024-01-06T13:24:02.457Z,96262.22
2024-01-06T13:26:33.332Z,96240.00
2024-01-06T13:29:03.019Z,96253.81
2024-01-06T13:31:38.456Z,96252.09
2024-01-06T13:34:08.959Z,96250.63
2024-01-06T13:36:39.779Z,96255.06
2024-01-06T13:39:18.664Z,96260.72
2024-01-06T13:41:49.472Z,96258.03
2024-01-06T13:44:20.373Z,96267.44
2024-01-06T13:46:56.142Z,96259.88
2024-01-06T13:49:29.601Z,96259.06
2024-01-06T13:52:00.858Z,96269.97
2024-01-06T13:54:31.766Z,96265.88
2024-01-06T13:57:02.726Z,96256.03
2024-01-06T13:59:33.349Z,96263.22
2024-01-06T14:02:07.501Z,96265.88
2024-01-06T14:04:38.593Z,96260.97
2024-01-06T14:07:09.818Z,96258.91
2024-01-06T14:09:40.743Z,96257.91
2024-01-06T14:12:11.586Z,96243.94
2024-01-06T14:14:43.059Z,96242.69
2024-01-06T14:17:16.555Z,96240.22
2024-01-06T14:19:48.383Z,96240.66
2024-01-06T14:22:19.320Z,96237.53
2024-01-06T14:24:51.245Z,96235.31
2024-01-06T14:27:22.211Z,96227.50
2024-01-06T14:29:54.995Z,96233.31
2024-01-06T14:32:28.479Z,96225.38
2024-01-06T14:34:59.440Z,96232.97
2024-01-06T14:37:30.294Z,96223.38
2024-01-06T14:40:06.410Z,96204.72
2024-01-06T14:42:37.847Z,96206.34
2024-01-06T14:45:09.770Z,96205.53
2024-01-06T14:47:43.411Z,96202.69
2024-01-06T14:50:14.438Z,96198.34
2024-01-06T14:52:45.102Z,96204.66
2024-01-06T14:55:16.371Z,96209.78
2024-01-06T14:57:47.616Z,96218.19
2024-01-06T15:00:19.733Z,96205.03
2024-01-06T15:02:53.858Z,96202.94
2024-01-06T15:05:27.699Z,96209.31
2024-01-06T15:07:59.085Z,96195.09
2024-01-06T15:10:30.461Z,96197.34
2024-01-06T15:13:01.915Z,96198.56
2024-01-06T15:15:33.542Z,96198.34
2024-01-06T15:18:07.830Z,96190.13
2024-01-06T15:20:39.079Z,96175.75
2024-01-06T15:23:10.420Z,96174.72
2024-01-06T15:25:45.631Z,96172.03
2024-01-06T15:28:17.716Z,96174.72
2024-01-06T15:30:49.037Z,96171.44
2024-01-06T15:33:29.108Z,96174.50
2024-01-06T15:36:00.617Z,96170.59
2024-01-06T15:38:32.006Z,96173.06
2024-01-06T15:41:05.659Z,96176.38
2024-01-06T15:43:39.196Z,96165.34
2024-01-06T15:46:10.051Z,96174.22
2024-01-06T15:48:43.473Z,96177.63
2024-01-06T15:51:14.198Z,96174.16
2024-01-06T15:53:44.900Z,96169.38
2024-01-06T15:56:15.542Z,96168.78
2024-01-06T15:58:46.233Z,96163.44
2024-01-06T16:01:17.109Z,96177.38
2024-01-06T16:03:50.795Z,96179.22
2024-01-06T16:06:22.624Z,96177.63
2024-01-06T16:08:53.497Z,96176.41
2024-01-06T16:11:24.204Z,96171.91
2024-01-06T16:13:55.277Z,96165.72
2024-01-06T16:16:25.937Z,96168.59
2024-01-06T16:18:59.577Z,96167.16
2024-01-06T16:21:31.262Z,96158.75
2024-01-06T16:24:02.030Z,96153.38
2024-01-06T16:26:32.948Z,96157.06
2024-01-06T16:29:03.829Z,96159.09
2024-01-06T16:31:34.763Z,96156.63
2024-01-06T16:34:08.334Z,96150.66
2024-01-06T16:36:39.175Z,96159.88
2024-01-06T16:39:10.374Z,96154.13
2024-01-06T16:41:41.058Z,96155.56
2024-01-06T16:44:11.838Z,96170.34
2024-01-06T16:46:42.684Z,96154.13
2024-01-06T16:49:16.152Z,96153.94
2024-01-06T16:51:47.215Z,96157.44
2024-01-06T16:54:18.108Z,96152.41
2024-01-06T16:56:48.950Z,96160.00
2024-01-06T16:59:19.752Z,96165.28
2024-01-06T17:01:50.724Z,96165.03
2024-01-06T17:04:24.496Z,96173.78
2024-01-06T17:06:56.599Z,96170.88
2024-01-06T17:09:29.426Z,96172.75
2024-01-06T17:12:00.409Z,96175.41
2024-01-06T17:14:31.233Z,96170.88
2024-01-06T17:17:01.980Z,96168.88
2024-01-06T17:19:36.052Z,96165.19
2024-01-06T17:22:07.125Z,96161.13
2024-01-06T17:24:38.604Z,96156.66
2024-01-06T17:27:09.869Z,96161.59
2024-01-06T17:29:40.589Z,96156.72
2024-01-06T17:32:15.749Z,96146.47
2024-01-06T17:34:51.825Z,96131.28
2024-01-06T17:37:22.923Z,96134.78
2024-01-06T17:39:53.762Z,96130.47
2024-01-06T17:42:25.867Z,96128.00
2024-01-06T17:44:56.880Z,96120.56
2024-01-06T17:47:27.649Z,96130.03
2024-01-06T17:50:01.290Z,96125.47
2024-01-06T17:52:32.285Z,96131.63
2024-01-06T17:55:03.865Z,96126.25
2024-01-06T17:57:36.375Z,96124.56
2024-01-06T18:00:10.523Z,96115.09
2024-01-06T18:02:41.670Z,96113.06
2024-01-06T18:05:15.760Z,96107.19
2024-01-06T18:07:46.668Z,96108.50
2024-01-06T18:10:17.465Z,96101.38
2024-01-06T18:12:49.138Z,96106.50
2024-01-06T18:15:20.301Z,96103.81
2024-01-06T18:17:51.187Z,96089.06
2024-01-06T18:20:25.174Z,96088.63
2024-01-06T18:22:56.079Z,96085.75
2024-01-06T18:25:26.903Z,96093.56
2024-01-06T18:27:57.879Z,96076.78
2024-01-06T18:30:28.697Z,96070.63
2024-01-06T18:33:01.823Z,96064.06
2024-01-06T18:35:35.141Z,96064.88
2024-01-06T18:38:05.841Z,96066.53
2024-01-06T18:40:36.513Z,96048.91
2024-01-06T18:43:07.686Z,96051.78
2024-01-06T18:45:38.492Z,96046.44
2024-01-06T18:48:12.261Z,96049.31
2024-01-06T18:50:47.910Z,96034.59
2024-01-06T18:53:19.723Z,96042.16
2024-01-06T18:55:50.602Z,96034.97
2024-01-06T18:58:21.816Z,96039.50
2024-01-06T19:00:52.690Z,96033.75
2024-01-06T19:03:23.504Z,96030.06
2024-01-06T19:05:57.037Z,96030.69
2024-01-06T19:08:28.058Z,96029.44
2024-01-06T19:10:59.090Z,96020.81
2024-01-06T19:13:30.438Z,96012.53
2024-01-06T19:16:01.696Z,95993.06
2024-01-06T19:18:33.104Z,96006.13
2024-01-06T19:21:08.410Z,95991.34
2024-01-06T19:23:39.495Z,95977.56
2024-01-06T19:26:13.532Z,95989.22
2024-01-06T19:28:44.260Z,95980.34
2024-01-06T19:31:15.060Z,95981.56
2024-01-06T19:33:46.451Z,95978.47
2024-01-06T19:36:19.901Z,95969.00
2024-01-06T19:38:50.666Z,95961.63
2024-01-06T19:41:21.478Z,95967.34
2024-01-06T19:43:52.193Z,95975.72
2024-01-06T19:46:22.925Z,95968.31
2024-01-06T19:48:53.708Z,95960.09
2024-01-06T19:51:28.552Z,95950.03
2024-01-06T19:53:59.215Z,95936.47
2024-01-06T19:56:29.951Z,95939.13
2024-01-06T19:59:00.711Z,95940.75
2024-01-06T20:01:31.491Z,95946.69
2024-01-06T20:04:02.379Z,95938.25
2024-01-06T20:06:35.992Z,95930.84
2024-01-06T20:09:08.047Z,95926.09
2024-01-06T20:11:38.869Z,95922.59
2024-01-06T20:14:10.042Z,95921.88
2024-01-06T20:16:40.792Z,95917.38
2024-01-06T20:19:11.821Z,95907.38
2024-01-06T20:21:45.381Z,95895.47
2024-01-06T20:24:16.320Z,95895.91
2024-01-06T20:26:47.076Z,95890.56
2024-01-06T20:29:17.945Z,95900.22
2024-01-06T20:31:48.931Z,95879.47
2024-01-06T20:34:19.872Z,95888.53
2024-01-06T20:36:53.302Z,95878.66
2024-01-06T20:39:24.100Z,95877.22
2024-01-06T20:41:54.949Z,95880.94
2024-01-06T20:44:25.777Z,95871.69
2024-01-06T20:46:56.672Z,95864.03
2024-01-06T20:49:29.760Z,95874.72
2024-01-06T20:52:04.452Z,95866.28
2024-01-06T20:54:35.095Z,95859.91
2024-01-06T20:57:06.200Z,95862.56
2024-01-06T20:59:36.881Z,95852.13
2024-01-06T21:02:07.980Z,95847.59
2024-01-06T21:04:38.656Z,95843.69
2024-01-06T21:07:12.017Z,95848.59
2024-01-06T21:09:42.794Z,95844.50
2024-01-06T21:12:13.519Z,95853.09
2024-01-06T21:14:44.175Z,95835.09
2024-01-06T21:17:14.888Z,95828.50
2024-01-06T21:19:46.350Z,95822.69
2024-01-06T21:22:20.789Z,95822.06
2024-01-06T21:24:51.703Z,95806.25
2024-01-06T21:27:22.634Z,95800.47
2024-01-06T21:29:53.413Z,95785.88
2024-01-06T21:32:24.116Z,95781.94
2024-01-06T21:34:54.999Z,95796.34
2024-01-06T21:37:29.398Z,95793.66
2024-01-06T21:40:05.721Z,95788.31
2024-01-06T21:42:36.584Z,95776.16
2024-01-06T21:45:08.056Z,95780.31
2024-01-06T21:47:40.243Z,95765.94
2024-01-06T21:50:12.679Z,95757.47
2024-01-06T21:52:47.204Z,95746.13
2024-01-06T21:55:18.671Z,95743.38
2024-01-06T21:57:49.461Z,95725.44
2024-01-06T22:00:21.223Z,95716.72
2024-01-06T22:02:52.989Z,95719.53
2024-01-06T22:05:24.049Z,95726.88
2024-01-06T22:07:57.366Z,95705.53
2024-01-06T22:10:33.878Z,95711.81
2024-01-06T22:13:05.767Z,95699.25
2024-01-06T22:15:36.896Z,95688.72
2024-01-06T22:18:08.071Z,95683.97
2024-01-06T22:20:38.935Z,95677.94
2024-01-06T22:23:12.181Z,95680.25
2024-01-06T22:25:42.801Z,95672.25
2024-01-06T22:28:15.565Z,95688.03
2024-01-06T22:30:46.445Z,95679.81
2024-01-06T22:33:18.530Z,95678.19
2024-01-06T22:35:49.451Z,95675.88
2024-01-06T22:38:22.715Z,95663.31
2024-01-06T22:40:53.894Z,95668.75
2024-01-06T22:43:24.615Z,95690.94
2024-01-06T22:45:55.395Z,95676.88
2024-01-06T22:48:26.268Z,95663.59
2024-01-06T22:50:57.426Z,95660.34
2024-01-06T22:53:30.797Z,95679.47
2024-01-06T22:56:01.526Z,95660.78
2024-01-06T22:58:34.415Z,95679.25
2024-01-06T23:01:07.115Z,95659.50
2024-01-06T23:03:39.178Z,95666.94
2024-01-06T23:06:10.130Z,95658.34
2024-01-06T23:08:44.978Z,95673.50
2024-01-06T23:11:17.585Z,95676.63
2024-01-06T23:13:48.299Z,95678.09
2024-01-06T23:16:19.782Z,95689.84
2024-01-06T23:18:50.658Z,95681.22
2024-01-06T23:21:21.633Z,95682.88
2024-01-06T23:23:54.918Z,95672.75
2024-01-06T23:26:25.603Z,95681.97
2024-01-06T23:28:56.328Z,95672.31
2024-01-06T23:31:27.051Z,95669.59
2024-01-06T23:33:58.162Z,95646.09
2024-01-06T23:36:29.015Z,95647.34
2024-01-06T23:39:02.302Z,95647.78
2024-01-06T23:41:32.956Z,95639.13
2024-01-06T23:44:03.605Z,95633.09
2024-01-06T23:46:34.724Z,95625.00
2024-01-06T23:49:05.462Z,95619.81
2024-01-06T23:51:36.218Z,95642.72
2024-01-06T23:54:09.692Z,95639.94
2024-01-06T23:56:40.338Z,95638.66
2024-01-06T23:59:11.063Z,95617.13
